Anchorage, Kentucky
Current Conditions -  °F | °C
As of 2:04 PM on Saturday 25 Oct 2014 (Local Time) from KLOU Reporting Station
Scattered Clouds Scattered Clouds  
Wind Chill: 21°   Ceiling: Unl
Heat Index: 21°   Visibility: 7mi
Dew Point: 15°   Wind: 9mph
Humidity: 70%   Direction: 220°SW
Pressure: 29.97"   Gusts: NA
Location:  38.2621°N, 85.5415°W
Report Text: KLOU 251804Z 22008KT 7SM SCT019 21/15 A2997 RMK AO2 T02060150
Loading
Personal Weather Stations






























Interactive Weather Map
Tropical Storm Tracking
New forecast layout! Learn more

10-Day Weather Forecast

Advertisements
Track Severe Weather on mobile